createdAt,value
2022-09-24T00:00:53.798Z,52.90
2022-09-24T00:03:34.789Z,52.20
2022-09-24T00:06:09.500Z,51.00
2022-09-24T00:08:43.625Z,52.70
2022-09-24T00:11:16.427Z,52.10
2022-09-24T00:13:53.443Z,53.90
2022-09-24T00:16:27.845Z,55.10
2022-09-24T00:19:05.242Z,54.20
2022-09-24T00:21:40.472Z,50.90
2022-09-24T00:24:39.085Z,48.80
2022-09-24T00:27:13.542Z,45.80
2022-09-24T00:29:47.252Z,43.40
2022-09-24T00:32:19.693Z,42.10
2022-09-24T00:34:57.293Z,42.90
2022-09-24T00:37:31.633Z,44.50
2022-09-24T00:40:06.260Z,44.70
2022-09-24T00:42:40.583Z,42.70
2022-09-24T00:45:13.989Z,41.70
2022-09-24T00:47:46.728Z,41.00
2022-09-24T00:50:26.005Z,40.00
2022-09-24T00:53:00.728Z,39.50
2022-09-24T00:55:37.330Z,38.20
2022-09-24T00:58:11.791Z,39.10
2022-09-24T01:00:44.778Z,40.60
2022-09-24T01:03:20.965Z,41.10
2022-09-24T01:05:57.331Z,40.70
2022-09-24T01:08:31.980Z,41.40
2022-09-24T01:11:14.888Z,41.20
2022-09-24T01:14:19.080Z,41.20
2022-09-24T01:16:57.799Z,41.70
2022-09-24T01:19:54.113Z,40.90
2022-09-24T01:22:38.412Z,41.30
2022-09-24T01:25:23.758Z,42.20
2022-09-24T01:28:07.665Z,40.40
2022-09-24T01:30:42.454Z,40.10
2022-09-24T01:33:17.458Z,42.30
2022-09-24T01:35:53.295Z,40.10
2022-09-24T01:38:28.253Z,40.50
2022-09-24T01:41:04.126Z,40.50
2022-09-24T01:43:40.913Z,45.20
2022-09-24T01:46:14.130Z,47.60
2022-09-24T01:48:47.340Z,45.70
2022-09-24T01:51:25.880Z,42.80
2022-09-24T01:54:02.704Z,43.00
2022-09-24T01:56:42.331Z,45.10
2022-09-24T01:59:18.815Z,41.50
2022-09-24T02:02:00.041Z,42.40
2022-09-24T02:04:39.849Z,45.40
2022-09-24T02:07:16.515Z,44.40
2022-09-24T02:09:48.821Z,43.60
2022-09-24T02:12:24.945Z,39.70
2022-09-24T02:14:59.468Z,40.00
2022-09-24T02:17:35.219Z,38.80
2022-09-24T02:20:11.026Z,39.70
2022-09-24T02:22:44.846Z,37.20
2022-09-24T02:25:20.152Z,38.40
2022-09-24T02:27:53.893Z,37.30
2022-09-24T02:30:26.253Z,37.00
2022-09-24T02:33:02.673Z,35.70
2022-09-24T02:35:35.122Z,36.60
2022-09-24T02:38:18.934Z,36.60
2022-09-24T02:40:53.509Z,35.50
2022-09-24T02:43:27.265Z,36.60
2022-09-24T02:46:03.771Z,36.10
2022-09-24T02:48:37.365Z,35.90
2022-09-24T02:51:10.820Z,37.40
2022-09-24T02:53:47.825Z,36.00
2022-09-24T02:56:19.782Z,35.90
2022-09-24T02:58:54.964Z,37.00
2022-09-24T03:01:29.811Z,38.00
2022-09-24T03:04:07.152Z,36.90
2022-09-24T03:06:40.170Z,37.70
2022-09-24T03:09:14.861Z,37.90
2022-09-24T03:11:48.760Z,35.00
2022-09-24T03:14:23.796Z,37.80
2022-09-24T03:16:57.014Z,38.30
2022-09-24T03:19:31.550Z,41.60
2022-09-24T03:22:04.800Z,42.30
2022-09-24T03:24:37.238Z,45.00
2022-09-24T03:27:13.327Z,42.30
2022-09-24T03:30:03.536Z,42.50
2022-09-24T03:32:39.702Z,42.00
2022-09-24T03:35:12.962Z,41.80
2022-09-24T03:37:48.922Z,41.60
2022-09-24T03:40:23.539Z,43.60
2022-09-24T03:42:56.266Z,44.40
2022-09-24T03:45:29.855Z,41.40
2022-09-24T03:48:06.977Z,42.30
2022-09-24T03:50:40.683Z,42.70
2022-09-24T03:53:12.651Z,46.00
2022-09-24T03:55:56.897Z,50.20
2022-09-24T03:58:33.007Z,51.00
2022-09-24T04:01:04.920Z,48.60
2022-09-24T04:03:40.189Z,47.40
2022-09-24T04:06:20.740Z,42.90
2022-09-24T04:09:00.536Z,41.60
2022-09-24T04:11:38.749Z,41.80
2022-09-24T04:14:11.238Z,39.90
2022-09-24T04:16:45.666Z,39.70
2022-09-24T04:19:20.918Z,38.90
2022-09-24T04:21:57.282Z,39.00
2022-09-24T04:24:30.049Z,39.80
2022-09-24T04:27:06.371Z,39.00
2022-09-24T04:29:38.457Z,47.30
2022-09-24T04:32:10.514Z,67.80
2022-09-24T04:34:43.894Z,59.00
2022-09-24T04:37:15.886Z,50.70
2022-09-24T04:39:52.186Z,46.00
2022-09-24T04:42:27.422Z,45.20
2022-09-24T04:45:05.052Z,50.40
2022-09-24T04:47:41.952Z,51.80
2022-09-24T04:50:14.611Z,49.90
2022-09-24T04:52:46.685Z,47.20
2022-09-24T04:55:20.935Z,43.10
2022-09-24T04:57:53.862Z,41.90
2022-09-24T05:00:27.608Z,45.00
2022-09-24T05:03:05.398Z,46.60
2022-09-24T05:05:39.421Z,47.50
2022-09-24T05:08:13.279Z,48.80
2022-09-24T05:10:49.086Z,49.10
2022-09-24T05:13:22.312Z,51.30
2022-09-24T05:15:54.990Z,53.70
2022-09-24T05:18:28.376Z,54.50
2022-09-24T05:21:00.828Z,49.30
2022-09-24T05:23:36.170Z,43.30
2022-09-24T05:26:25.780Z,42.70
2022-09-24T05:28:59.277Z,41.10
2022-09-24T05:31:32.568Z,41.30
2022-09-24T05:34:08.262Z,39.10
2022-09-24T05:36:42.426Z,36.50
2022-09-24T05:39:15.009Z,35.50
2022-09-24T05:41:48.134Z,36.40
2022-09-24T05:44:21.711Z,42.10
2022-09-24T05:46:54.769Z,43.10
2022-09-24T05:49:28.206Z,38.00
2022-09-24T05:52:03.207Z,34.30
2022-09-24T05:54:36.383Z,33.20
2022-09-24T05:57:10.170Z,31.10
2022-09-24T05:59:45.304Z,32.20
2022-09-24T06:02:19.504Z,31.20
2022-09-24T06:04:52.047Z,31.50
2022-09-24T06:07:29.524Z,30.50
2022-09-24T06:10:05.688Z,30.20
2022-09-24T06:12:40.876Z,30.50
2022-09-24T06:15:14.205Z,29.50
2022-09-24T06:17:51.773Z,28.80
2022-09-24T06:20:26.309Z,28.20
2022-09-24T06:23:00.147Z,27.80
2022-09-24T06:25:34.247Z,27.90
2022-09-24T06:28:08.198Z,30.70
2022-09-24T06:30:43.327Z,32.50
2022-09-24T06:33:15.770Z,28.80
2022-09-24T06:35:49.450Z,26.80
2022-09-24T06:38:23.154Z,26.90
2022-09-24T06:40:59.382Z,26.90
2022-09-24T06:43:33.989Z,25.60
2022-09-24T06:46:08.294Z,26.20
2022-09-24T06:48:42.122Z,24.80
2022-09-24T06:51:15.290Z,25.40
2022-09-24T06:53:47.122Z,24.50
2022-09-24T06:56:19.602Z,25.20
2022-09-24T06:58:53.605Z,24.40
2022-09-24T07:01:26.965Z,22.90
2022-09-24T07:04:03.588Z,23.10
2022-09-24T07:06:52.139Z,22.60
2022-09-24T07:09:25.499Z,23.80
2022-09-24T07:12:01.819Z,24.70
2022-09-24T07:14:37.010Z,24.60
2022-09-24T07:17:34.101Z,22.60
2022-09-24T07:20:17.673Z,22.60
2022-09-24T07:23:18.620Z,20.50
2022-09-24T07:26:18.552Z,20.00
2022-09-24T07:28:55.791Z,19.60
2022-09-24T07:32:20.880Z,18.60
2022-09-24T07:35:23.154Z,17.60
2022-09-24T07:38:08.367Z,17.40
2022-09-24T07:41:12.495Z,17.90
2022-09-24T07:44:11.018Z,17.50
2022-09-24T07:50:33.926Z,18.00
2022-09-24T07:53:08.290Z,18.40
2022-09-24T07:55:46.262Z,17.60
2022-09-24T07:58:24.190Z,18.10
2022-09-24T08:01:07.781Z,16.40
2022-09-24T08:04:11.396Z,16.50
2022-09-24T08:06:47.824Z,17.80
2022-09-24T08:09:23.502Z,17.60
2022-09-24T08:11:57.889Z,17.50
2022-09-24T08:14:56.623Z,17.10
2022-09-24T08:17:56.990Z,17.10
2022-09-24T08:20:31.781Z,16.50
2022-09-24T08:27:22.517Z,15.70
2022-09-24T08:29:57.283Z,14.90
2022-09-24T08:33:23.854Z,14.60
2022-09-24T08:36:23.420Z,14.90
2022-09-24T08:49:42.976Z,14.20
2022-09-24T08:52:30.588Z,14.10
2022-09-24T08:55:07.464Z,13.00
2022-09-24T08:57:48.520Z,13.00
2022-09-24T09:00:20.898Z,12.30
2022-09-24T09:03:00.588Z,12.60
2022-09-24T09:05:49.735Z,13.30
2022-09-24T09:08:55.012Z,13.80
2022-09-24T09:11:29.067Z,12.90
2022-09-24T09:14:07.687Z,11.70
2022-09-24T09:16:50.524Z,13.50
2022-09-24T09:19:27.817Z,11.80
2022-09-24T09:22:03.101Z,12.50
2022-09-24T09:25:28.895Z,12.20
2022-09-24T09:28:21.140Z,11.00
2022-09-24T09:31:11.501Z,10.10
2022-09-24T09:37:16.562Z,9.00
2022-09-24T09:40:03.234Z,8.60
2022-09-24T09:42:43.674Z,8.40
2022-09-24T09:45:34.426Z,8.40
2022-09-24T09:48:15.615Z,8.60
2022-09-24T09:51:23.021Z,7.30
2022-09-24T09:54:05.137Z,7.80
2022-09-24T09:56:40.350Z,7.70
2022-09-24T09:59:29.666Z,7.80
2022-09-24T10:02:15.144Z,7.70
2022-09-24T10:05:29.514Z,7.40
2022-09-24T10:08:06.933Z,7.30
2022-09-24T10:14:25.824Z,6.40
2022-09-24T10:17:09.504Z,7.10
2022-09-24T10:23:11.347Z,6.40
2022-09-24T10:26:14.691Z,6.00
2022-09-24T10:29:12.359Z,5.80
2022-09-24T10:32:23.379Z,5.70
2022-09-24T10:35:30.115Z,5.50
2022-09-24T10:38:15.867Z,6.20
2022-09-24T10:40:53.325Z,6.10
2022-09-24T10:44:06.527Z,6.00
2022-09-24T10:47:44.015Z,6.60
2022-09-24T10:50:57.673Z,5.50
2022-09-24T10:53:53.371Z,5.60
2022-09-24T10:57:07.257Z,5.40
2022-09-24T11:00:06.581Z,6.00
2022-09-24T11:03:06.055Z,5.40
2022-09-24T11:06:16.871Z,5.60
2022-09-24T11:09:01.150Z,6.00
2022-09-24T11:11:50.586Z,6.20
2022-09-24T11:14:39.466Z,5.90
2022-09-24T11:17:50.062Z,5.20
2022-09-24T11:21:12.266Z,5.20
2022-09-24T11:28:05.089Z,5.40
2022-09-24T11:38:08.839Z,3.90
2022-09-24T11:45:14.216Z,4.00
2022-09-24T11:48:10.177Z,3.60
2022-09-24T11:50:53.440Z,3.60
2022-09-24T11:57:35.479Z,3.80
2022-09-24T12:00:17.874Z,3.40
2022-09-24T12:03:01.267Z,3.60
2022-09-24T12:06:07.227Z,3.30
2022-09-24T12:09:30.864Z,3.20
2022-09-24T12:12:33.650Z,3.30
2022-09-24T12:21:34.212Z,3.20
2022-09-24T12:24:13.613Z,3.50
2022-09-24T12:27:18.700Z,3.90
2022-09-24T12:30:51.067Z,4.30
2022-09-24T12:34:03.936Z,4.60
2022-09-24T12:42:59.973Z,3.70
2022-09-24T12:45:35.897Z,3.40
2022-09-24T12:48:19.948Z,3.30
2022-09-24T12:51:07.553Z,3.30
2022-09-24T12:58:19.645Z,3.20
2022-09-24T13:00:54.392Z,3.00
2022-09-24T13:07:01.012Z,3.30
2022-09-24T13:09:41.959Z,3.40
2022-09-24T13:12:37.658Z,3.10
2022-09-24T13:15:33.437Z,3.50
2022-09-24T13:18:49.137Z,3.90
2022-09-24T13:21:54.834Z,3.20
2022-09-24T13:25:17.334Z,3.70
2022-09-24T13:28:04.414Z,3.30
2022-09-24T13:30:44.278Z,3.40
2022-09-24T13:33:27.187Z,3.70
2022-09-24T13:36:16.308Z,3.30
2022-09-24T13:39:42.974Z,3.50
2022-09-24T13:43:08.909Z,3.30
2022-09-24T13:46:18.084Z,3.20
2022-09-24T13:49:00.130Z,3.10
2022-09-24T13:58:19.836Z,3.50
2022-09-24T14:00:59.541Z,3.00
2022-09-24T14:03:58.253Z,3.60
2022-09-24T14:06:41.409Z,3.70
2022-09-24T14:10:32.253Z,3.40
2022-09-24T14:17:20.518Z,3.50
2022-09-24T14:20:39.185Z,3.30
2022-09-24T14:23:20.269Z,3.80
2022-09-24T14:25:52.110Z,3.80
2022-09-24T14:31:21.934Z,4.00
2022-09-24T14:33:55.588Z,3.90
2022-09-24T14:37:14.204Z,4.40
2022-09-24T14:39:54.995Z,3.80
2022-09-24T14:42:58.642Z,4.70
2022-09-24T14:45:33.714Z,4.50
2022-09-24T14:48:08.941Z,4.60
2022-09-24T14:51:20.954Z,4.30
2022-09-24T14:54:00.193Z,4.20
2022-09-24T14:56:55.057Z,4.90
2022-09-24T15:00:03.226Z,4.50
2022-09-24T15:02:42.740Z,4.30
2022-09-24T15:05:15.895Z,4.50
2022-09-24T15:07:53.182Z,4.50
2022-09-24T15:10:26.446Z,4.30
2022-09-24T15:13:05.446Z,4.80
2022-09-24T15:19:47.041Z,4.20
2022-09-24T15:22:40.494Z,4.60
2022-09-24T15:25:18.827Z,4.50
2022-09-24T15:27:54.729Z,4.80
2022-09-24T15:30:57.870Z,4.60
2022-09-24T15:33:37.840Z,4.80
2022-09-24T15:39:20.587Z,5.40
2022-09-24T15:41:54.603Z,5.10
2022-09-24T15:44:54.489Z,5.30
2022-09-24T15:47:48.933Z,5.90
2022-09-24T15:50:23.967Z,6.00
2022-09-24T15:53:00.344Z,5.10
2022-09-24T15:55:33.135Z,5.60
2022-09-24T15:58:05.729Z,5.30
2022-09-24T16:00:36.782Z,5.70
2022-09-24T16:06:53.556Z,6.10
2022-09-24T16:09:32.464Z,7.10
2022-09-24T16:12:04.807Z,6.30
2022-09-24T16:14:36.540Z,7.10
2022-09-24T16:17:53.829Z,7.50
2022-09-24T16:20:27.720Z,8.60
2022-09-24T16:23:08.558Z,9.00
2022-09-24T16:25:39.823Z,8.60
2022-09-24T16:28:17.010Z,10.50
2022-09-24T16:31:40.761Z,9.70
2022-09-24T16:34:14.289Z,10.60
2022-09-24T16:40:22.123Z,11.80
2022-09-24T16:43:03.451Z,13.60
2022-09-24T16:45:41.010Z,23.00
2022-09-24T16:48:13.769Z,20.90
2022-09-24T16:51:41.443Z,28.80
2022-09-24T16:54:14.966Z,24.10
2022-09-24T16:56:55.352Z,27.90
2022-09-24T16:59:54.394Z,27.20
2022-09-24T17:02:52.329Z,26.60
2022-09-24T17:05:26.250Z,31.60
2022-09-24T17:07:57.339Z,33.50
2022-09-24T17:10:31.367Z,31.20
2022-09-24T17:13:03.102Z,27.70
2022-09-24T17:15:36.821Z,28.80
2022-09-24T17:18:09.395Z,30.20
2022-09-24T17:20:46.090Z,32.60
2022-09-24T17:23:40.226Z,27.00
2022-09-24T17:26:22.784Z,26.20
2022-09-24T17:28:58.105Z,26.90
2022-09-24T17:32:02.584Z,25.20
2022-09-24T17:34:57.231Z,25.40
2022-09-24T17:37:52.309Z,25.40
2022-09-24T17:41:39.502Z,26.30
2022-09-24T17:45:26.785Z,25.20
2022-09-24T17:48:08.173Z,26.10
2022-09-24T17:51:22.502Z,27.10
2022-09-24T17:54:43.193Z,25.20
2022-09-24T17:57:17.535Z,28.80
2022-09-24T17:59:55.368Z,32.60
2022-09-24T18:02:27.011Z,31.80
2022-09-24T18:05:04.543Z,33.30
2022-09-24T18:07:38.590Z,31.80
2022-09-24T18:10:18.615Z,31.00
2022-09-24T18:12:50.490Z,30.00
2022-09-24T18:15:23.396Z,31.00
2022-09-24T18:21:22.071Z,28.00
2022-09-24T18:23:57.090Z,29.90
2022-09-24T18:29:59.383Z,25.60
2022-09-24T18:32:37.479Z,28.00
2022-09-24T18:35:12.620Z,29.90
2022-09-24T18:37:43.030Z,28.80
2022-09-24T18:40:39.390Z,30.30
2022-09-24T18:43:10.240Z,30.50
2022-09-24T18:45:46.873Z,29.10
2022-09-24T18:48:46.221Z,28.40
2022-09-24T18:51:24.982Z,27.60
2022-09-24T18:57:06.026Z,24.50
2022-09-24T19:00:01.742Z,22.40
2022-09-24T19:05:40.303Z,22.30
2022-09-24T19:08:16.813Z,22.20
2022-09-24T19:10:52.767Z,22.90
2022-09-24T19:13:32.244Z,22.10
2022-09-24T19:16:29.593Z,23.70
2022-09-24T19:22:11.459Z,26.40
2022-09-24T19:24:51.069Z,26.80
2022-09-24T19:28:13.495Z,27.80
2022-09-24T19:30:48.003Z,30.40
2022-09-24T19:33:22.567Z,30.40
2022-09-24T19:36:02.190Z,29.90
2022-09-24T19:38:37.986Z,30.90
2022-09-24T19:41:11.177Z,31.20
2022-09-24T19:44:13.848Z,31.50
2022-09-24T19:46:46.728Z,32.00
2022-09-24T19:49:23.373Z,33.40
2022-09-24T19:51:57.474Z,33.20
2022-09-24T19:54:32.519Z,35.70
2022-09-24T19:57:55.276Z,34.80
2022-09-24T20:03:50.336Z,33.60
2022-09-24T20:06:29.538Z,34.90
2022-09-24T20:09:29.763Z,34.20
2022-09-24T20:12:22.276Z,33.30
2022-09-24T20:14:54.676Z,34.40
2022-09-24T20:17:24.705Z,34.80
2022-09-24T20:20:00.647Z,34.70
2022-09-24T20:23:20.950Z,35.00
2022-09-24T20:26:37.344Z,33.60
2022-09-24T20:29:14.385Z,32.80
2022-09-24T20:34:52.127Z,32.00
2022-09-24T20:37:25.088Z,31.10
2022-09-24T20:39:57.589Z,30.80
2022-09-24T20:42:31.602Z,31.70
2022-09-24T20:45:09.775Z,31.00
2022-09-24T20:47:43.970Z,29.50
2022-09-24T20:50:14.571Z,29.70
2022-09-24T20:52:49.843Z,30.20
2022-09-24T20:55:22.993Z,30.30
2022-09-24T20:57:54.752Z,30.60
2022-09-24T21:00:56.502Z,30.80
2022-09-24T21:04:14.116Z,29.30
2022-09-24T21:06:46.765Z,30.10
2022-09-24T21:09:24.265Z,30.50
2022-09-24T21:11:58.530Z,30.10
2022-09-24T21:14:30.779Z,30.40
2022-09-24T21:17:04.471Z,30.30
2022-09-24T21:19:37.388Z,30.60
2022-09-24T21:22:16.109Z,29.50
2022-09-24T21:24:56.669Z,30.20
2022-09-24T21:27:28.754Z,30.60
2022-09-24T21:30:01.869Z,31.90
2022-09-24T21:32:38.343Z,32.90
2022-09-24T21:35:12.197Z,35.60
2022-09-24T21:37:41.679Z,33.70
2022-09-24T21:40:19.650Z,33.20
2022-09-24T21:42:49.871Z,33.20
2022-09-24T21:45:24.128Z,32.30
2022-09-24T21:47:54.734Z,33.50
2022-09-24T21:50:27.461Z,32.80
2022-09-24T21:52:58.435Z,33.00
2022-09-24T21:55:39.669Z,33.40
2022-09-24T21:58:08.914Z,33.20
2022-09-24T22:00:43.315Z,34.30
2022-09-24T22:03:18.745Z,33.80
2022-09-24T22:05:50.499Z,32.90
2022-09-24T22:14:52.302Z,31.10
2022-09-24T22:17:46.301Z,33.20
2022-09-24T22:20:19.811Z,32.70
2022-09-24T22:22:49.454Z,34.80
2022-09-24T22:25:22.264Z,36.10
2022-09-24T22:27:55.489Z,34.10
2022-09-24T22:30:25.187Z,34.90
2022-09-24T22:32:54.945Z,34.70
2022-09-24T22:35:47.862Z,35.20
2022-09-24T22:38:19.499Z,35.50
2022-09-24T22:41:23.268Z,37.10
2022-09-24T22:43:53.755Z,36.10
2022-09-24T22:46:48.941Z,36.90
2022-09-24T22:49:25.506Z,35.90
2022-09-24T22:52:48.743Z,41.50
2022-09-24T22:55:18.577Z,46.60
2022-09-24T22:57:48.774Z,58.30
2022-09-24T23:00:46.398Z,57.30
2022-09-24T23:03:18.736Z,54.90
2022-09-24T23:05:49.955Z,56.30
2022-09-24T23:08:46.922Z,48.90
2022-09-24T23:11:27.215Z,50.00
2022-09-24T23:14:04.759Z,46.20
2022-09-24T23:20:22.250Z,38.00
2022-09-24T23:23:16.044Z,38.00
2022-09-24T23:26:14.227Z,36.30
2022-09-24T23:29:13.032Z,37.10
2022-09-24T23:31:54.919Z,36.20
2022-09-24T23:35:19.252Z,36.60
2022-09-24T23:37:47.929Z,35.50
2022-09-24T23:40:24.087Z,36.10
2022-09-24T23:43:44.133Z,37.40
2022-09-24T23:49:22.871Z,36.90
2022-09-24T23:51:55.263Z,37.80
2022-09-24T23:54:53.395Z,39.30
2022-09-24T23:57:23.989Z,37.30
2022-09-24T23:59:59.309Z,40.20
